Aérodrome :
LOGIN :

S'inscrire | Disclaimer

   EN    FR    IT 

 










Légende :    VFR   VFR Marginal   IFR   IFR Intensif   IFR Très Intensif
Visi : 
Plafond : 
>= 8 km
>= 3000ft
5 à 8 km
1000 à 3000 ft
1500m à 5 km
500 à 1000 ft
800 à 1500m
200 à 500 ft
< 800m
< 200 ft
Symboles :   Orages  Brouillard  Fortes neiges  Fortes précipitations  Vent > 20 kt
SIGMETs :   Divers  Orages  Givrage  Turbulence  Onde Orograph.  Cendres Volcan.







- Altitude de l'aérodrome : 14 ft
- Code IATA : BRE


EDDW - Bremen Neuenland

DERNIER METAR :
  • 192320Z 12005KT 090V160 3800 MIFG BR NSC 12/11 Q1010

METARs EXPIRÉS :
  • 192250Z 12006KT 4200 MIFG BR NSC 12/11 Q1010
  • 192220Z 11004KT 070V150 4000 MIFG BR NSC 12/11 Q1010
  • 192150Z 12005KT 080V150 4800 MIFG BR NSC 12/12 Q1010
  • 192120Z 13006KT 5000 MIFG BR NSC 13/12 Q1010
  • 192050Z 12006KT 6000 MIFG NSC 13/12 Q1010 BECMG 4500 BR

TAF TAF EDDW
Valide du 20 à 00h jusqu'au 21 à 00h UTC


192300Z 2000/2024 12005KT 7000 NSC
TEMPO 2000/2003 3000 BR
PROB30
TEMPO 2000/2002 1400 BCFG BKN004
PROB40
TEMPO 2008/2010 4000 BR
BECMG 2008/2011 18008KT
PROB30
TEMPO 2009/2015 21013KT SHRA FEW008 SCT045CB
Pas de NOTAMs connus pour ce terrain.



MET'MAP, la Météo Aéronautique d'un coup d'oeil ! - Copyright ORBIFLY Décembre 2007 - Disclaimer

ORBIFLY MET'MAP TEAM :

Programmation & Développement : Alexandra Zaïnal
Conception & Développement : Baudouin d'Aumeries
Co-Programmation & Développement : Marc-Olivier Méhu
Soutien technique & logistique : Manuel Goepfert

Contact : metmap@orbifly.com




SOURCES & CREDITS :

   NOAA